sensor_id;sensor_type;location;lat;lon;timestamp;P1;durP1;ratioP1;P2;durP2;ratioP2
54683;SDS011;40582;53.100;6.686;2022-11-02T00:01:50;13.60;;;3.03;;
54683;SDS011;40582;53.100;6.686;2022-11-02T00:04:16;18.52;;;3.58;;
54683;SDS011;40582;53.100;6.686;2022-11-02T00:06:42;17.42;;;3.65;;
54683;SDS011;40582;53.100;6.686;2022-11-02T00:09:08;11.57;;;2.90;;
54683;SDS011;40582;53.100;6.686;2022-11-02T00:11:34;14.13;;;2.83;;
54683;SDS011;40582;53.100;6.686;2022-11-02T00:14:01;14.95;;;2.53;;
54683;SDS011;40582;53.100;6.686;2022-11-02T00:16:27;8.25;;;2.45;;
54683;SDS011;40582;53.100;6.686;2022-11-02T00:18:54;15.73;;;2.60;;
54683;SDS011;40582;53.100;6.686;2022-11-02T00:21:23;15.18;;;2.58;;
54683;SDS011;40582;53.100;6.686;2022-11-02T00:23:51;7.38;;;2.40;;
54683;SDS011;40582;53.100;6.686;2022-11-02T00:26:18;11.40;;;2.78;;
54683;SDS011;40582;53.100;6.686;2022-11-02T00:28:44;17.98;;;3.05;;
54683;SDS011;40582;53.100;6.686;2022-11-02T00:31:10;10.80;;;2.55;;
54683;SDS011;40582;53.100;6.686;2022-11-02T00:33:35;34.08;;;5.25;;
54683;SDS011;40582;53.100;6.686;2022-11-02T00:36:01;34.90;;;3.83;;
54683;SDS011;40582;53.100;6.686;2022-11-02T00:38:27;13.02;;;2.97;;
54683;SDS011;40582;53.100;6.686;2022-11-02T00:40:53;19.15;;;3.33;;
54683;SDS011;40582;53.100;6.686;2022-11-02T00:43:18;14.05;;;2.42;;
54683;SDS011;40582;53.100;6.686;2022-11-02T00:45:44;6.18;;;1.98;;
54683;SDS011;40582;53.100;6.686;2022-11-02T00:48:10;6.03;;;1.90;;
54683;SDS011;40582;53.100;6.686;2022-11-02T00:50:35;6.95;;;1.85;;
54683;SDS011;40582;53.100;6.686;2022-11-02T00:53:01;8.82;;;1.90;;
54683;SDS011;40582;53.100;6.686;2022-11-02T00:55:27;4.85;;;1.27;;
54683;SDS011;40582;53.100;6.686;2022-11-02T00:57:52;7.95;;;1.48;;
54683;SDS011;40582;53.100;6.686;2022-11-02T01:00:18;6.70;;;1.60;;
54683;SDS011;40582;53.100;6.686;2022-11-02T01:02:44;10.88;;;1.40;;
54683;SDS011;40582;53.100;6.686;2022-11-02T01:05:10;9.57;;;1.92;;
54683;SDS011;40582;53.100;6.686;2022-11-02T01:07:36;6.97;;;1.50;;
54683;SDS011;40582;53.100;6.686;2022-11-02T01:10:03;5.85;;;1.20;;
54683;SDS011;40582;53.100;6.686;2022-11-02T01:12:30;7.82;;;1.35;;
54683;SDS011;40582;53.100;6.686;2022-11-02T01:14:55;5.10;;;1.40;;
54683;SDS011;40582;53.100;6.686;2022-11-02T01:17:21;5.80;;;1.52;;
54683;SDS011;40582;53.100;6.686;2022-11-02T01:19:48;2.38;;;1.13;;
54683;SDS011;40582;53.100;6.686;2022-11-02T01:22:15;4.95;;;1.52;;
54683;SDS011;40582;53.100;6.686;2022-11-02T01:24:40;2.58;;;1.08;;
54683;SDS011;40582;53.100;6.686;2022-11-02T01:27:06;4.35;;;1.13;;
54683;SDS011;40582;53.100;6.686;2022-11-02T01:29:32;4.13;;;1.15;;
54683;SDS011;40582;53.100;6.686;2022-11-02T01:31:57;3.42;;;1.02;;
54683;SDS011;40582;53.100;6.686;2022-11-02T01:34:23;6.57;;;1.33;;
54683;SDS011;40582;53.100;6.686;2022-11-02T01:36:49;5.70;;;1.33;;
54683;SDS011;40582;53.100;6.686;2022-11-02T01:39:14;4.53;;;1.55;;
54683;SDS011;40582;53.100;6.686;2022-11-02T01:41:40;3.10;;;0.85;;
54683;SDS011;40582;53.100;6.686;2022-11-02T01:46:50;2.78;;;1.23;;
54683;SDS011;40582;53.100;6.686;2022-11-02T01:49:18;2.45;;;1.13;;
54683;SDS011;40582;53.100;6.686;2022-11-02T01:51:48;3.40;;;1.20;;
54683;SDS011;40582;53.100;6.686;2022-11-02T01:54:36;4.28;;;1.13;;
54683;SDS011;40582;53.100;6.686;2022-11-02T01:57:16;4.68;;;1.80;;
54683;SDS011;40582;53.100;6.686;2022-11-02T02:03:03;7.40;;;1.45;;
54683;SDS011;40582;53.100;6.686;2022-11-02T02:05:33;5.65;;;1.45;;
54683;SDS011;40582;53.100;6.686;2022-11-02T02:08:04;7.68;;;1.88;;
54683;SDS011;40582;53.100;6.686;2022-11-02T02:10:32;3.58;;;1.80;;
54683;SDS011;40582;53.100;6.686;2022-11-02T02:12:58;6.47;;;1.92;;
54683;SDS011;40582;53.100;6.686;2022-11-02T02:15:26;9.60;;;2.63;;
54683;SDS011;40582;53.100;6.686;2022-11-02T02:17:59;6.78;;;2.50;;
54683;SDS011;40582;53.100;6.686;2022-11-02T02:32:46;24.52;;;2.90;;
54683;SDS011;40582;53.100;6.686;2022-11-02T02:35:22;15.10;;;3.25;;
54683;SDS011;40582;53.100;6.686;2022-11-02T02:38:00;11.70;;;3.10;;
54683;SDS011;40582;53.100;6.686;2022-11-02T02:40:33;18.20;;;3.30;;
54683;SDS011;40582;53.100;6.686;2022-11-02T02:43:36;18.88;;;3.25;;
54683;SDS011;40582;53.100;6.686;2022-11-02T02:46:07;14.80;;;3.08;;
54683;SDS011;40582;53.100;6.686;2022-11-02T02:48:37;12.57;;;2.97;;
54683;SDS011;40582;53.100;6.686;2022-11-02T02:51:10;10.98;;;2.50;;
54683;SDS011;40582;53.100;6.686;2022-11-02T02:53:44;10.65;;;2.67;;
54683;SDS011;40582;53.100;6.686;2022-11-02T02:56:15;11.40;;;2.97;;
54683;SDS011;40582;53.100;6.686;2022-11-02T02:59:28;15.82;;;3.08;;
54683;SDS011;40582;53.100;6.686;2022-11-02T03:01:50;16.40;;;2.55;;
54683;SDS011;40582;53.100;6.686;2022-11-02T03:04:18;13.60;;;2.30;;
54683;SDS011;40582;53.100;6.686;2022-11-02T03:06:46;12.88;;;2.30;;
54683;SDS011;40582;53.100;6.686;2022-11-02T03:11:49;8.30;;;2.05;;
54683;SDS011;40582;53.100;6.686;2022-11-02T03:22:19;7.85;;;1.55;;
54683;SDS011;40582;53.100;6.686;2022-11-02T03:25:46;5.18;;;1.42;;
54683;SDS011;40582;53.100;6.686;2022-11-02T03:27:49;6.68;;;1.60;;
54683;SDS011;40582;53.100;6.686;2022-11-02T03:30:39;7.40;;;1.85;;
54683;SDS011;40582;53.100;6.686;2022-11-02T03:33:15;9.27;;;2.17;;
54683;SDS011;40582;53.100;6.686;2022-11-02T03:41:05;7.55;;;1.95;;
54683;SDS011;40582;53.100;6.686;2022-11-02T03:43:34;10.20;;;2.03;;
54683;SDS011;40582;53.100;6.686;2022-11-02T03:46:02;9.73;;;1.90;;
54683;SDS011;40582;53.100;6.686;2022-11-02T03:48:31;13.98;;;2.50;;
54683;SDS011;40582;53.100;6.686;2022-11-02T03:51:01;9.95;;;2.00;;
54683;SDS011;40582;53.100;6.686;2022-11-02T03:56:10;10.75;;;2.45;;
54683;SDS011;40582;53.100;6.686;2022-11-02T03:58:40;9.90;;;2.10;;
54683;SDS011;40582;53.100;6.686;2022-11-02T04:01:06;11.77;;;1.92;;
54683;SDS011;40582;53.100;6.686;2022-11-02T04:03:32;13.48;;;2.50;;
54683;SDS011;40582;53.100;6.686;2022-11-02T04:05:58;16.52;;;3.70;;
54683;SDS011;40582;53.100;6.686;2022-11-02T04:08:29;12.85;;;2.33;;
54683;SDS011;40582;53.100;6.686;2022-11-02T04:10:59;15.93;;;2.67;;
54683;SDS011;40582;53.100;6.686;2022-11-02T04:13:43;18.42;;;3.15;;
54683;SDS011;40582;53.100;6.686;2022-11-02T04:16:28;12.27;;;2.10;;
54683;SDS011;40582;53.100;6.686;2022-11-02T04:18:53;10.98;;;2.30;;
54683;SDS011;40582;53.100;6.686;2022-11-02T04:21:38;10.45;;;2.60;;
54683;SDS011;40582;53.100;6.686;2022-11-02T04:24:04;9.00;;;1.90;;
54683;SDS011;40582;53.100;6.686;2022-11-02T04:26:49;17.58;;;2.15;;
54683;SDS011;40582;53.100;6.686;2022-11-02T04:29:14;12.23;;;2.58;;
54683;SDS011;40582;53.100;6.686;2022-11-02T04:31:40;7.90;;;2.60;;
54683;SDS011;40582;53.100;6.686;2022-11-02T04:34:06;7.47;;;2.25;;
54683;SDS011;40582;53.100;6.686;2022-11-02T04:36:31;13.38;;;2.22;;
54683;SDS011;40582;53.100;6.686;2022-11-02T04:38:57;10.95;;;2.42;;
54683;SDS011;40582;53.100;6.686;2022-11-02T04:41:23;13.73;;;2.42;;
54683;SDS011;40582;53.100;6.686;2022-11-02T04:44:08;14.18;;;2.35;;
54683;SDS011;40582;53.100;6.686;2022-11-02T04:46:36;12.10;;;2.35;;
54683;SDS011;40582;53.100;6.686;2022-11-02T04:49:02;13.20;;;2.60;;
54683;SDS011;40582;53.100;6.686;2022-11-02T04:51:29;14.60;;;2.65;;
54683;SDS011;40582;53.100;6.686;2022-11-02T04:53:55;13.85;;;2.47;;
54683;SDS011;40582;53.100;6.686;2022-11-02T04:56:22;13.07;;;2.58;;
54683;SDS011;40582;53.100;6.686;2022-11-02T04:58:52;11.48;;;2.42;;
54683;SDS011;40582;53.100;6.686;2022-11-02T05:01:20;10.00;;;2.90;;
54683;SDS011;40582;53.100;6.686;2022-11-02T05:03:47;11.38;;;2.80;;
54683;SDS011;40582;53.100;6.686;2022-11-02T05:06:14;11.45;;;2.45;;
54683;SDS011;40582;53.100;6.686;2022-11-02T05:08:41;17.45;;;3.15;;
54683;SDS011;40582;53.100;6.686;2022-11-02T05:11:07;7.03;;;2.47;;
54683;SDS011;40582;53.100;6.686;2022-11-02T05:13:34;12.88;;;2.90;;
54683;SDS011;40582;53.100;6.686;2022-11-02T05:16:00;11.60;;;2.53;;
54683;SDS011;40582;53.100;6.686;2022-11-02T05:18:26;14.68;;;3.45;;
54683;SDS011;40582;53.100;6.686;2022-11-02T05:20:53;17.88;;;2.72;;
54683;SDS011;40582;53.100;6.686;2022-11-02T05:23:21;16.30;;;3.15;;
54683;SDS011;40582;53.100;6.686;2022-11-02T05:26:09;13.63;;;3.03;;
54683;SDS011;40582;53.100;6.686;2022-11-02T05:28:34;16.50;;;3.70;;
54683;SDS011;40582;53.100;6.686;2022-11-02T05:31:00;19.95;;;3.50;;
54683;SDS011;40582;53.100;6.686;2022-11-02T05:33:27;17.35;;;2.90;;
54683;SDS011;40582;53.100;6.686;2022-11-02T05:35:57;17.50;;;2.88;;
54683;SDS011;40582;53.100;6.686;2022-11-02T05:38:24;21.15;;;3.58;;
54683;SDS011;40582;53.100;6.686;2022-11-02T05:40:51;16.13;;;3.15;;
54683;SDS011;40582;53.100;6.686;2022-11-02T05:43:21;15.07;;;3.35;;
54683;SDS011;40582;53.100;6.686;2022-11-02T05:46:05;18.52;;;3.35;;
54683;SDS011;40582;53.100;6.686;2022-11-02T05:48:31;20.63;;;3.38;;
54683;SDS011;40582;53.100;6.686;2022-11-02T05:50:58;21.13;;;3.45;;
54683;SDS011;40582;53.100;6.686;2022-11-02T05:53:26;14.35;;;3.20;;
54683;SDS011;40582;53.100;6.686;2022-11-02T05:55:59;15.73;;;3.67;;
54683;SDS011;40582;53.100;6.686;2022-11-02T05:58:26;22.33;;;3.90;;
54683;SDS011;40582;53.100;6.686;2022-11-02T06:00:52;22.25;;;4.72;;
54683;SDS011;40582;53.100;6.686;2022-11-02T06:03:18;22.23;;;3.75;;
54683;SDS011;40582;53.100;6.686;2022-11-02T06:05:44;21.52;;;3.85;;
54683;SDS011;40582;53.100;6.686;2022-11-02T06:08:10;15.50;;;3.15;;
54683;SDS011;40582;53.100;6.686;2022-11-02T06:10:36;16.13;;;3.25;;
54683;SDS011;40582;53.100;6.686;2022-11-02T06:13:02;14.38;;;3.15;;
54683;SDS011;40582;53.100;6.686;2022-11-02T06:15:29;14.38;;;3.55;;
54683;SDS011;40582;53.100;6.686;2022-11-02T06:17:55;20.33;;;4.07;;
54683;SDS011;40582;53.100;6.686;2022-11-02T06:20:21;18.42;;;3.38;;
54683;SDS011;40582;53.100;6.686;2022-11-02T06:22:47;15.15;;;3.10;;
54683;SDS011;40582;53.100;6.686;2022-11-02T06:25:13;17.05;;;3.35;;
54683;SDS011;40582;53.100;6.686;2022-11-02T06:27:39;13.80;;;3.28;;
54683;SDS011;40582;53.100;6.686;2022-11-02T06:30:08;11.48;;;2.70;;
54683;SDS011;40582;53.100;6.686;2022-11-02T06:32:34;18.90;;;3.33;;
54683;SDS011;40582;53.100;6.686;2022-11-02T06:35:00;12.07;;;3.03;;
54683;SDS011;40582;53.100;6.686;2022-11-02T06:37:25;20.13;;;3.75;;
54683;SDS011;40582;53.100;6.686;2022-11-02T06:39:51;14.90;;;3.15;;
54683;SDS011;40582;53.100;6.686;2022-11-02T06:42:16;16.45;;;3.15;;
54683;SDS011;40582;53.100;6.686;2022-11-02T06:44:42;16.13;;;3.67;;
54683;SDS011;40582;53.100;6.686;2022-11-02T06:47:08;21.17;;;3.83;;
54683;SDS011;40582;53.100;6.686;2022-11-02T06:49:33;20.55;;;3.42;;
54683;SDS011;40582;53.100;6.686;2022-11-02T06:51:59;19.83;;;5.00;;
54683;SDS011;40582;53.100;6.686;2022-11-02T06:54:25;20.63;;;3.42;;
54683;SDS011;40582;53.100;6.686;2022-11-02T06:56:50;19.58;;;4.28;;
54683;SDS011;40582;53.100;6.686;2022-11-02T06:59:16;25.40;;;4.32;;
54683;SDS011;40582;53.100;6.686;2022-11-02T07:01:42;19.08;;;3.95;;
54683;SDS011;40582;53.100;6.686;2022-11-02T07:04:07;18.30;;;3.65;;
54683;SDS011;40582;53.100;6.686;2022-11-02T07:06:33;20.67;;;3.97;;
54683;SDS011;40582;53.100;6.686;2022-11-02T07:08:59;22.15;;;3.75;;
54683;SDS011;40582;53.100;6.686;2022-11-02T07:11:24;19.77;;;3.47;;
54683;SDS011;40582;53.100;6.686;2022-11-02T07:13:50;25.05;;;4.00;;
54683;SDS011;40582;53.100;6.686;2022-11-02T07:16:16;18.77;;;3.60;;
54683;SDS011;40582;53.100;6.686;2022-11-02T07:18:41;18.05;;;3.90;;
54683;SDS011;40582;53.100;6.686;2022-11-02T07:21:07;20.95;;;3.85;;
54683;SDS011;40582;53.100;6.686;2022-11-02T07:23:35;24.65;;;3.75;;
54683;SDS011;40582;53.100;6.686;2022-11-02T07:26:01;16.70;;;3.78;;
54683;SDS011;40582;53.100;6.686;2022-11-02T07:28:28;23.73;;;3.47;;
54683;SDS011;40582;53.100;6.686;2022-11-02T07:30:54;27.92;;;3.80;;
54683;SDS011;40582;53.100;6.686;2022-11-02T07:33:20;16.92;;;3.35;;
54683;SDS011;40582;53.100;6.686;2022-11-02T07:35:45;22.52;;;3.90;;
54683;SDS011;40582;53.100;6.686;2022-11-02T07:38:11;14.88;;;3.08;;
54683;SDS011;40582;53.100;6.686;2022-11-02T07:40:37;23.92;;;3.47;;
54683;SDS011;40582;53.100;6.686;2022-11-02T07:43:03;32.70;;;4.35;;
54683;SDS011;40582;53.100;6.686;2022-11-02T07:45:30;23.75;;;3.28;;
54683;SDS011;40582;53.100;6.686;2022-11-02T07:47:56;20.23;;;3.38;;
54683;SDS011;40582;53.100;6.686;2022-11-02T07:50:22;18.58;;;3.45;;
54683;SDS011;40582;53.100;6.686;2022-11-02T07:52:50;21.88;;;3.72;;
54683;SDS011;40582;53.100;6.686;2022-11-02T07:55:18;16.17;;;3.28;;
54683;SDS011;40582;53.100;6.686;2022-11-02T07:57:58;25.63;;;4.30;;
54683;SDS011;40582;53.100;6.686;2022-11-02T08:00:24;22.00;;;3.85;;
54683;SDS011;40582;53.100;6.686;2022-11-02T08:02:56;22.25;;;4.07;;
54683;SDS011;40582;53.100;6.686;2022-11-02T08:05:23;19.15;;;3.30;;
54683;SDS011;40582;53.100;6.686;2022-11-02T08:07:56;19.38;;;3.47;;
54683;SDS011;40582;53.100;6.686;2022-11-02T08:10:27;17.27;;;3.17;;
54683;SDS011;40582;53.100;6.686;2022-11-02T08:12:54;19.52;;;3.83;;
54683;SDS011;40582;53.100;6.686;2022-11-02T08:15:20;20.15;;;3.70;;
54683;SDS011;40582;53.100;6.686;2022-11-02T08:17:46;19.85;;;3.78;;
54683;SDS011;40582;53.100;6.686;2022-11-02T08:20:11;18.48;;;4.00;;
54683;SDS011;40582;53.100;6.686;2022-11-02T08:22:38;16.52;;;3.20;;
54683;SDS011;40582;53.100;6.686;2022-11-02T08:25:04;20.90;;;3.42;;
54683;SDS011;40582;53.100;6.686;2022-11-02T08:27:31;14.68;;;3.17;;
54683;SDS011;40582;53.100;6.686;2022-11-02T08:29:57;15.35;;;2.97;;
54683;SDS011;40582;53.100;6.686;2022-11-02T08:32:23;11.70;;;2.65;;
54683;SDS011;40582;53.100;6.686;2022-11-02T08:34:48;11.15;;;2.38;;
54683;SDS011;40582;53.100;6.686;2022-11-02T08:37:14;15.55;;;2.92;;
54683;SDS011;40582;53.100;6.686;2022-11-02T08:39:40;13.27;;;2.40;;
54683;SDS011;40582;53.100;6.686;2022-11-02T08:42:05;13.63;;;2.90;;
54683;SDS011;40582;53.100;6.686;2022-11-02T08:44:31;11.63;;;2.58;;
54683;SDS011;40582;53.100;6.686;2022-11-02T08:46:57;17.27;;;2.72;;
54683;SDS011;40582;53.100;6.686;2022-11-02T08:49:22;11.10;;;2.70;;
54683;SDS011;40582;53.100;6.686;2022-11-02T08:51:48;9.88;;;2.70;;
54683;SDS011;40582;53.100;6.686;2022-11-02T08:54:14;13.77;;;1.95;;
54683;SDS011;40582;53.100;6.686;2022-11-02T08:56:40;16.92;;;2.35;;
54683;SDS011;40582;53.100;6.686;2022-11-02T08:59:05;6.97;;;2.38;;
54683;SDS011;40582;53.100;6.686;2022-11-02T09:01:32;12.45;;;2.47;;
54683;SDS011;40582;53.100;6.686;2022-11-02T09:03:57;13.07;;;2.78;;
54683;SDS011;40582;53.100;6.686;2022-11-02T09:06:23;14.80;;;2.58;;
54683;SDS011;40582;53.100;6.686;2022-11-02T09:08:49;15.40;;;2.72;;
54683;SDS011;40582;53.100;6.686;2022-11-02T09:11:14;13.18;;;2.83;;
54683;SDS011;40582;53.100;6.686;2022-11-02T09:13:40;14.30;;;2.67;;
54683;SDS011;40582;53.100;6.686;2022-11-02T09:16:06;17.13;;;2.33;;
54683;SDS011;40582;53.100;6.686;2022-11-02T09:18:32;10.23;;;2.40;;
54683;SDS011;40582;53.100;6.686;2022-11-02T09:21:02;12.30;;;2.70;;
54683;SDS011;40582;53.100;6.686;2022-11-02T09:23:28;9.95;;;2.53;;
54683;SDS011;40582;53.100;6.686;2022-11-02T09:25:54;16.42;;;3.15;;
54683;SDS011;40582;53.100;6.686;2022-11-02T09:28:20;14.98;;;2.45;;
54683;SDS011;40582;53.100;6.686;2022-11-02T09:30:45;10.88;;;2.30;;
54683;SDS011;40582;53.100;6.686;2022-11-02T09:33:11;15.45;;;2.97;;
54683;SDS011;40582;53.100;6.686;2022-11-02T09:35:38;20.30;;;2.90;;
54683;SDS011;40582;53.100;6.686;2022-11-02T09:38:05;18.48;;;3.10;;
54683;SDS011;40582;53.100;6.686;2022-11-02T09:40:38;14.05;;;3.38;;
54683;SDS011;40582;53.100;6.686;2022-11-02T09:46:05;18.02;;;2.38;;
54683;SDS011;40582;53.100;6.686;2022-11-02T09:48:39;12.85;;;2.58;;
54683;SDS011;40582;53.100;6.686;2022-11-02T09:51:14;17.73;;;2.78;;
54683;SDS011;40582;53.100;6.686;2022-11-02T09:56:41;10.35;;;3.00;;
54683;SDS011;40582;53.100;6.686;2022-11-02T09:59:21;11.95;;;2.78;;
54683;SDS011;40582;53.100;6.686;2022-11-02T10:07:33;11.32;;;3.03;;
54683;SDS011;40582;53.100;6.686;2022-11-02T10:10:11;16.98;;;2.92;;
54683;SDS011;40582;53.100;6.686;2022-11-02T10:12:48;9.95;;;2.40;;
54683;SDS011;40582;53.100;6.686;2022-11-02T10:15:26;19.20;;;2.95;;
54683;SDS011;40582;53.100;6.686;2022-11-02T10:18:00;10.77;;;2.50;;
54683;SDS011;40582;53.100;6.686;2022-11-02T10:20:44;12.13;;;2.08;;
54683;SDS011;40582;53.100;6.686;2022-11-02T10:23:20;13.32;;;2.15;;
54683;SDS011;40582;53.100;6.686;2022-11-02T10:25:58;16.38;;;2.67;;
54683;SDS011;40582;53.100;6.686;2022-11-02T10:28:26;17.45;;;3.47;;
54683;SDS011;40582;53.100;6.686;2022-11-02T10:30:55;14.68;;;3.17;;
54683;SDS011;40582;53.100;6.686;2022-11-02T10:33:25;15.27;;;2.80;;
54683;SDS011;40582;53.100;6.686;2022-11-02T10:35:56;12.15;;;2.65;;
54683;SDS011;40582;53.100;6.686;2022-11-02T10:49:56;14.77;;;2.45;;
54683;SDS011;40582;53.100;6.686;2022-11-02T10:51:56;14.38;;;3.13;;
54683;SDS011;40582;53.100;6.686;2022-11-02T10:54:21;17.90;;;3.30;;
54683;SDS011;40582;53.100;6.686;2022-11-02T10:56:49;17.58;;;3.05;;
54683;SDS011;40582;53.100;6.686;2022-11-02T10:59:15;14.55;;;2.65;;
54683;SDS011;40582;53.100;6.686;2022-11-02T11:04:19;11.90;;;3.03;;
54683;SDS011;40582;53.100;6.686;2022-11-02T11:06:50;18.02;;;2.75;;
54683;SDS011;40582;53.100;6.686;2022-11-02T11:12:05;14.40;;;2.88;;
54683;SDS011;40582;53.100;6.686;2022-11-02T11:14:53;18.33;;;2.80;;
54683;SDS011;40582;53.100;6.686;2022-11-02T11:17:23;23.83;;;2.90;;
54683;SDS011;40582;53.100;6.686;2022-11-02T11:19:53;14.18;;;3.00;;
54683;SDS011;40582;53.100;6.686;2022-11-02T11:22:31;15.75;;;2.88;;
54683;SDS011;40582;53.100;6.686;2022-11-02T11:27:45;13.60;;;2.38;;
54683;SDS011;40582;53.100;6.686;2022-11-02T11:32:57;10.38;;;2.35;;
54683;SDS011;40582;53.100;6.686;2022-11-02T11:35:25;17.52;;;2.90;;
54683;SDS011;40582;53.100;6.686;2022-11-02T11:37:56;19.50;;;3.80;;
54683;SDS011;40582;53.100;6.686;2022-11-02T11:40:28;12.60;;;2.40;;
54683;SDS011;40582;53.100;6.686;2022-11-02T11:42:59;18.73;;;2.70;;
54683;SDS011;40582;53.100;6.686;2022-11-02T11:45:26;14.88;;;2.40;;
54683;SDS011;40582;53.100;6.686;2022-11-02T11:48:01;10.15;;;2.22;;
54683;SDS011;40582;53.100;6.686;2022-11-02T11:50:31;11.60;;;2.50;;
54683;SDS011;40582;53.100;6.686;2022-11-02T11:55:53;16.35;;;3.28;;
54683;SDS011;40582;53.100;6.686;2022-11-02T12:01:02;12.43;;;1.77;;
54683;SDS011;40582;53.100;6.686;2022-11-02T12:03:28;22.90;;;2.42;;
54683;SDS011;40582;53.100;6.686;2022-11-02T12:08:47;11.85;;;2.47;;
54683;SDS011;40582;53.100;6.686;2022-11-02T12:14:39;14.32;;;2.58;;
54683;SDS011;40582;53.100;6.686;2022-11-02T12:23:14;9.60;;;2.00;;
54683;SDS011;40582;53.100;6.686;2022-11-02T12:26:10;10.13;;;2.35;;
54683;SDS011;40582;53.100;6.686;2022-11-02T12:31:38;13.07;;;2.45;;
54683;SDS011;40582;53.100;6.686;2022-11-02T12:34:11;21.60;;;2.65;;
54683;SDS011;40582;53.100;6.686;2022-11-02T12:42:31;15.90;;;3.78;;
54683;SDS011;40582;53.100;6.686;2022-11-02T12:45:01;22.10;;;5.00;;
54683;SDS011;40582;53.100;6.686;2022-11-02T12:53:25;14.27;;;2.72;;
54683;SDS011;40582;53.100;6.686;2022-11-02T12:55:58;13.70;;;2.30;;
54683;SDS011;40582;53.100;6.686;2022-11-02T12:58:27;20.35;;;2.80;;
54683;SDS011;40582;53.100;6.686;2022-11-02T13:01:04;11.35;;;2.72;;
54683;SDS011;40582;53.100;6.686;2022-11-02T13:03:55;15.65;;;3.20;;
54683;SDS011;40582;53.100;6.686;2022-11-02T13:06:43;13.60;;;2.75;;
54683;SDS011;40582;53.100;6.686;2022-11-02T13:11:44;18.23;;;3.33;;
54683;SDS011;40582;53.100;6.686;2022-11-02T13:14:15;19.05;;;2.63;;
54683;SDS011;40582;53.100;6.686;2022-11-02T13:16:48;13.13;;;3.13;;
54683;SDS011;40582;53.100;6.686;2022-11-02T13:19:20;16.58;;;3.13;;
54683;SDS011;40582;53.100;6.686;2022-11-02T13:21:53;14.48;;;2.13;;
54683;SDS011;40582;53.100;6.686;2022-11-02T13:24:31;12.73;;;2.65;;
54683;SDS011;40582;53.100;6.686;2022-11-02T13:27:02;16.17;;;2.25;;
54683;SDS011;40582;53.100;6.686;2022-11-02T13:29:34;15.25;;;2.60;;
54683;SDS011;40582;53.100;6.686;2022-11-02T13:32:10;16.98;;;2.67;;
54683;SDS011;40582;53.100;6.686;2022-11-02T13:34:42;16.35;;;3.05;;
54683;SDS011;40582;53.100;6.686;2022-11-02T13:37:10;19.00;;;2.92;;
54683;SDS011;40582;53.100;6.686;2022-11-02T13:39:44;14.40;;;3.03;;
54683;SDS011;40582;53.100;6.686;2022-11-02T13:42:27;18.88;;;3.50;;
54683;SDS011;40582;53.100;6.686;2022-11-02T13:50:21;19.17;;;4.47;;
54683;SDS011;40582;53.100;6.686;2022-11-02T13:52:54;13.05;;;2.60;;
54683;SDS011;40582;53.100;6.686;2022-11-02T13:55:23;15.18;;;2.92;;
54683;SDS011;40582;53.100;6.686;2022-11-02T13:57:57;19.23;;;2.83;;
54683;SDS011;40582;53.100;6.686;2022-11-02T14:05:43;13.80;;;2.75;;
54683;SDS011;40582;53.100;6.686;2022-11-02T14:08:20;16.67;;;2.35;;
54683;SDS011;40582;53.100;6.686;2022-11-02T14:26:57;16.73;;;3.05;;
54683;SDS011;40582;53.100;6.686;2022-11-02T14:37:40;15.50;;;3.10;;
54683;SDS011;40582;53.100;6.686;2022-11-02T14:40:28;18.40;;;2.95;;
54683;SDS011;40582;53.100;6.686;2022-11-02T14:48:16;14.15;;;2.65;;
54683;SDS011;40582;53.100;6.686;2022-11-02T14:50:43;17.10;;;3.13;;
54683;SDS011;40582;53.100;6.686;2022-11-02T14:53:27;18.75;;;2.58;;
54683;SDS011;40582;53.100;6.686;2022-11-02T14:55:56;19.92;;;3.22;;
54683;SDS011;40582;53.100;6.686;2022-11-02T14:58:23;17.55;;;3.15;;
54683;SDS011;40582;53.100;6.686;2022-11-02T15:00:57;23.53;;;3.60;;
54683;SDS011;40582;53.100;6.686;2022-11-02T15:06:01;25.48;;;3.03;;
54683;SDS011;40582;53.100;6.686;2022-11-02T15:14:50;18.75;;;3.20;;
54683;SDS011;40582;53.100;6.686;2022-11-02T15:25:20;12.95;;;2.65;;
54683;SDS011;40582;53.100;6.686;2022-11-02T15:27:55;16.42;;;2.95;;
54683;SDS011;40582;53.100;6.686;2022-11-02T15:30:27;11.23;;;2.92;;
54683;SDS011;40582;53.100;6.686;2022-11-02T15:32:55;25.20;;;3.55;;
54683;SDS011;40582;53.100;6.686;2022-11-02T15:35:24;16.23;;;3.35;;
54683;SDS011;40582;53.100;6.686;2022-11-02T15:37:55;15.10;;;2.95;;
54683;SDS011;40582;53.100;6.686;2022-11-02T15:40:27;21.73;;;3.33;;
54683;SDS011;40582;53.100;6.686;2022-11-02T15:43:04;13.85;;;3.22;;
54683;SDS011;40582;53.100;6.686;2022-11-02T15:51:27;15.43;;;3.25;;
54683;SDS011;40582;53.100;6.686;2022-11-02T16:00:18;16.10;;;3.40;;
54683;SDS011;40582;53.100;6.686;2022-11-02T16:02:57;19.35;;;3.63;;
54683;SDS011;40582;53.100;6.686;2022-11-02T16:05:45;14.38;;;3.08;;
54683;SDS011;40582;53.100;6.686;2022-11-02T16:08:31;17.23;;;3.45;;
54683;SDS011;40582;53.100;6.686;2022-11-02T16:11:02;15.32;;;3.50;;
54683;SDS011;40582;53.100;6.686;2022-11-02T16:13:41;12.52;;;3.20;;
54683;SDS011;40582;53.100;6.686;2022-11-02T16:16:12;20.85;;;3.55;;
54683;SDS011;40582;53.100;6.686;2022-11-02T16:18:40;28.10;;;4.18;;
54683;SDS011;40582;53.100;6.686;2022-11-02T16:21:14;12.10;;;3.42;;
54683;SDS011;40582;53.100;6.686;2022-11-02T16:23:42;15.02;;;3.72;;
54683;SDS011;40582;53.100;6.686;2022-11-02T16:26:13;22.02;;;6.75;;
54683;SDS011;40582;53.100;6.686;2022-11-02T16:28:49;15.02;;;4.45;;
54683;SDS011;40582;53.100;6.686;2022-11-02T16:31:21;15.03;;;4.73;;
54683;SDS011;40582;53.100;6.686;2022-11-02T16:33:59;17.58;;;4.60;;
54683;SDS011;40582;53.100;6.686;2022-11-02T16:39:00;18.90;;;3.90;;
54683;SDS011;40582;53.100;6.686;2022-11-02T16:41:28;14.93;;;3.67;;
54683;SDS011;40582;53.100;6.686;2022-11-02T16:43:59;15.73;;;3.28;;
54683;SDS011;40582;53.100;6.686;2022-11-02T16:49:17;17.33;;;3.42;;
54683;SDS011;40582;53.100;6.686;2022-11-02T16:51:51;19.10;;;4.07;;
54683;SDS011;40582;53.100;6.686;2022-11-02T16:56:54;15.90;;;3.72;;
54683;SDS011;40582;53.100;6.686;2022-11-02T16:59:24;14.15;;;3.92;;
54683;SDS011;40582;53.100;6.686;2022-11-02T17:01:50;14.57;;;3.53;;
54683;SDS011;40582;53.100;6.686;2022-11-02T17:04:23;20.13;;;4.28;;
54683;SDS011;40582;53.100;6.686;2022-11-02T17:06:52;17.55;;;3.60;;
54683;SDS011;40582;53.100;6.686;2022-11-02T17:09:27;16.55;;;3.80;;
54683;SDS011;40582;53.100;6.686;2022-11-02T17:11:58;22.10;;;3.93;;
54683;SDS011;40582;53.100;6.686;2022-11-02T17:14:29;17.70;;;3.88;;
54683;SDS011;40582;53.100;6.686;2022-11-02T17:16:56;18.00;;;3.65;;
54683;SDS011;40582;53.100;6.686;2022-11-02T17:22:04;13.90;;;3.35;;
54683;SDS011;40582;53.100;6.686;2022-11-02T17:24:36;18.67;;;3.30;;
54683;SDS011;40582;53.100;6.686;2022-11-02T17:27:22;13.88;;;3.55;;
54683;SDS011;40582;53.100;6.686;2022-11-02T17:29:50;16.20;;;4.03;;
54683;SDS011;40582;53.100;6.686;2022-11-02T17:32:16;16.77;;;3.92;;
54683;SDS011;40582;53.100;6.686;2022-11-02T17:34:54;15.50;;;3.45;;
54683;SDS011;40582;53.100;6.686;2022-11-02T17:39:48;17.63;;;3.55;;
54683;SDS011;40582;53.100;6.686;2022-11-02T17:42:13;17.77;;;3.35;;
54683;SDS011;40582;53.100;6.686;2022-11-02T17:47:43;15.82;;;3.15;;
54683;SDS011;40582;53.100;6.686;2022-11-02T17:50:09;16.23;;;3.75;;
54683;SDS011;40582;53.100;6.686;2022-11-02T17:52:34;16.58;;;3.25;;
54683;SDS011;40582;53.100;6.686;2022-11-02T17:55:00;16.75;;;3.88;;
54683;SDS011;40582;53.100;6.686;2022-11-02T17:57:26;14.52;;;3.53;;
54683;SDS011;40582;53.100;6.686;2022-11-02T17:59:52;20.55;;;3.63;;
54683;SDS011;40582;53.100;6.686;2022-11-02T18:02:17;16.90;;;3.85;;